createdAt,value
2022-12-19T00:00:17.885Z,42.5
2022-12-19T00:01:34.175Z,42.7
2022-12-19T00:02:50.473Z,42.3
2022-12-19T00:04:06.763Z,42.5
2022-12-19T00:05:22.078Z,42.8
2022-12-19T00:06:38.367Z,47.2
2022-12-19T00:07:54.657Z,42.5
2022-12-19T00:09:10.945Z,42.8
2022-12-19T00:10:27.241Z,43.5
2022-12-19T00:11:43.550Z,43
2022-12-19T00:12:59.842Z,42.5
2022-12-19T00:14:15.142Z,42.2
2022-12-19T00:15:30.465Z,42.5
2022-12-19T00:16:46.763Z,42.3
2022-12-19T00:18:03.048Z,42.5
2022-12-19T00:19:19.344Z,42.8
2022-12-19T00:20:35.641Z,42
2022-12-19T00:21:51.920Z,42
2022-12-19T00:23:08.214Z,42.3
2022-12-19T00:24:24.515Z,42.3
2022-12-19T00:25:40.808Z,43.8
2022-12-19T00:26:57.115Z,42.2
2022-12-19T00:28:13.389Z,42
2022-12-19T00:29:29.684Z,42.7
2022-12-19T00:30:45.014Z,41.8
2022-12-19T00:32:01.304Z,42.5
2022-12-19T00:33:17.584Z,42.2
2022-12-19T00:34:33.880Z,43
2022-12-19T00:35:50.191Z,42.3
2022-12-19T00:37:06.485Z,42.5
2022-12-19T00:38:22.773Z,42.3
2022-12-19T00:39:39.068Z,42.3
2022-12-19T00:40:54.383Z,42.5
2022-12-19T00:42:09.690Z,42.5
2022-12-19T00:43:25.985Z,42.2
2022-12-19T00:44:42.285Z,42.5
2022-12-19T00:45:58.568Z,43.6
2022-12-19T00:47:14.864Z,43
2022-12-19T00:48:31.158Z,42.2
2022-12-19T00:49:47.456Z,42.3
2022-12-19T00:51:03.739Z,42.2
2022-12-19T00:52:20.040Z,43.3
2022-12-19T00:53:36.333Z,43.5
2022-12-19T00:54:52.634Z,42.5
2022-12-19T00:56:08.916Z,43.5
2022-12-19T00:57:25.218Z,42.5
2022-12-19T00:58:40.534Z,42.5
2022-12-19T00:59:56.813Z,42.3
2022-12-19T01:01:13.123Z,42.5
2022-12-19T01:02:29.401Z,42.2
2022-12-19T01:03:45.712Z,42.2
2022-12-19T01:05:01.987Z,42
2022-12-19T01:06:18.300Z,42
2022-12-19T01:07:33.614Z,42.5
2022-12-19T01:08:48.912Z,42.3
2022-12-19T01:10:05.206Z,41.8
2022-12-19T01:11:21.500Z,41.8
2022-12-19T01:12:37.797Z,42.2
2022-12-19T01:13:54.094Z,42.2
2022-12-19T01:15:10.388Z,41.5
2022-12-19T01:16:26.686Z,42
2022-12-19T01:17:42.963Z,43.1
2022-12-19T01:18:59.256Z,42
2022-12-19T01:20:15.550Z,42.2
2022-12-19T01:21:31.845Z,42.2
2022-12-19T01:22:48.139Z,42
2022-12-19T01:24:04.439Z,42.5
2022-12-19T01:25:19.749Z,42.3
2022-12-19T01:26:36.046Z,42.5
2022-12-19T01:27:52.339Z,43.1
2022-12-19T01:29:08.623Z,42.3
2022-12-19T01:30:24.918Z,43.1
2022-12-19T01:31:41.218Z,43.5
2022-12-19T01:32:57.522Z,43
2022-12-19T01:34:12.820Z,42.2
2022-12-19T01:35:28.145Z,43.5
2022-12-19T01:36:44.425Z,43.1
2022-12-19T01:38:00.737Z,42.8
2022-12-19T01:39:17.013Z,42.5
2022-12-19T01:40:33.311Z,42.3
2022-12-19T01:41:49.603Z,41.8
2022-12-19T01:43:05.902Z,43.5
2022-12-19T01:44:22.206Z,41.8
2022-12-19T01:45:38.501Z,42
2022-12-19T01:46:54.781Z,42
2022-12-19T01:48:11.069Z,47
2022-12-19T01:49:27.382Z,42.8
2022-12-19T01:50:43.660Z,42
2022-12-19T01:51:58.975Z,42.2
2022-12-19T01:53:15.267Z,42.8
2022-12-19T01:54:31.556Z,43.3
2022-12-19T01:55:47.862Z,42
2022-12-19T01:57:04.142Z,42.2
2022-12-19T01:58:20.437Z,42.5
2022-12-19T01:59:36.734Z,42.5
2022-12-19T02:00:53.024Z,42.7
2022-12-19T02:02:09.323Z,53.9
2022-12-19T02:03:25.613Z,41.7
2022-12-19T02:04:41.904Z,42
2022-12-19T02:05:58.209Z,42
2022-12-19T02:07:14.501Z,42.5
2022-12-19T02:08:29.810Z,43
2022-12-19T02:09:46.111Z,43.1
2022-12-19T02:11:02.407Z,43
2022-12-19T02:12:18.702Z,42.5
2022-12-19T02:13:34.997Z,42.5
2022-12-19T02:14:51.279Z,42.5
2022-12-19T02:16:07.568Z,43.3
2022-12-19T02:17:23.869Z,42.5
2022-12-19T02:18:40.159Z,42.2
2022-12-19T02:19:56.457Z,42.2
2022-12-19T02:21:12.757Z,42
2022-12-19T02:22:29.041Z,42
2022-12-19T02:23:45.332Z,43
2022-12-19T02:25:00.651Z,42.2
2022-12-19T02:26:16.934Z,42.5
2022-12-19T02:27:33.230Z,42.2
2022-12-19T02:28:49.530Z,42.7
2022-12-19T02:30:05.817Z,42.5
2022-12-19T02:31:22.108Z,48.6
2022-12-19T02:32:38.422Z,42.2
2022-12-19T02:33:54.701Z,45.1
2022-12-19T02:35:10.989Z,41.7
2022-12-19T02:36:27.288Z,42
2022-12-19T02:37:43.577Z,41.8
2022-12-19T02:38:59.883Z,41.7
2022-12-19T02:40:16.176Z,43.5
2022-12-19T02:41:31.484Z,43.1
2022-12-19T02:42:47.767Z,42
2022-12-19T02:44:04.077Z,42.5
2022-12-19T02:45:20.368Z,42
2022-12-19T02:46:36.654Z,44.4
2022-12-19T02:47:52.954Z,41.7
2022-12-19T02:49:09.256Z,41.7
2022-12-19T02:50:25.535Z,41.7
2022-12-19T02:51:41.832Z,41.4
2022-12-19T02:52:58.137Z,42
2022-12-19T02:54:14.424Z,41.4
2022-12-19T02:55:30.715Z,42
2022-12-19T02:56:47.016Z,41.5
2022-12-19T02:58:02.318Z,56.8
2022-12-19T02:59:18.623Z,43.3
2022-12-19T03:00:34.910Z,43
2022-12-19T03:01:51.211Z,41.2
2022-12-19T03:03:07.484Z,41.5
2022-12-19T03:04:23.797Z,41.5
2022-12-19T03:05:40.072Z,43.5
2022-12-19T03:06:56.377Z,41.5
2022-12-19T03:08:12.670Z,43.1
2022-12-19T03:09:28.966Z,41.7
2022-12-19T03:10:45.264Z,47.2
2022-12-19T03:12:01.552Z,42
2022-12-19T03:13:17.834Z,42.7
2022-12-19T03:14:33.145Z,43
2022-12-19T03:15:49.443Z,42.7
2022-12-19T03:17:05.748Z,41.2
2022-12-19T03:18:22.025Z,41.7
2022-12-19T03:19:38.337Z,41.7
2022-12-19T03:20:54.620Z,43.3
2022-12-19T03:22:10.923Z,40.9
2022-12-19T03:23:27.200Z,40.6
2022-12-19T03:24:43.494Z,41
2022-12-19T03:25:59.806Z,42
2022-12-19T03:27:16.094Z,42.5
2022-12-19T03:28:32.388Z,43.3
2022-12-19T03:29:48.677Z,44.3
2022-12-19T03:31:03.995Z,44.1
2022-12-19T03:32:20.276Z,50.4
2022-12-19T03:33:36.571Z,45.1
2022-12-19T03:34:52.873Z,41.4
2022-12-19T03:36:09.156Z,42
2022-12-19T03:37:25.466Z,41.2
2022-12-19T03:38:41.757Z,47.2
2022-12-19T03:39:58.047Z,45.4
2022-12-19T03:41:14.347Z,44.7
2022-12-19T03:42:30.635Z,44.1
2022-12-19T03:43:46.931Z,41.2
2022-12-19T03:45:03.210Z,49.3
2022-12-19T03:46:19.507Z,42
2022-12-19T03:47:34.818Z,41.4
2022-12-19T03:48:51.125Z,46.2
2022-12-19T03:50:07.400Z,41.2
2022-12-19T03:51:23.693Z,41.4
2022-12-19T03:52:40.001Z,41.5
2022-12-19T03:53:56.300Z,42
2022-12-19T03:55:12.582Z,41.5
2022-12-19T03:56:28.869Z,42.5
2022-12-19T03:57:45.170Z,41.7
2022-12-19T03:59:01.471Z,41.7
2022-12-19T04:00:17.758Z,41.8
2022-12-19T04:01:34.061Z,48.1
2022-12-19T04:02:50.341Z,43.3
2022-12-19T04:04:05.660Z,45.1
2022-12-19T04:05:21.944Z,44.7
2022-12-19T04:06:38.232Z,49.4
2022-12-19T04:07:54.538Z,43.5
2022-12-19T04:09:10.833Z,42.5
2022-12-19T04:10:27.134Z,43.5
2022-12-19T04:11:43.416Z,43
2022-12-19T04:12:59.710Z,43.5
2022-12-19T04:14:15.996Z,48
2022-12-19T04:15:32.307Z,44.6
2022-12-19T04:16:48.602Z,52.8
2022-12-19T04:18:04.898Z,44.4
2022-12-19T04:19:21.182Z,41.8
2022-12-19T04:20:36.484Z,43.3
2022-12-19T04:21:52.778Z,47.3
2022-12-19T04:23:09.081Z,47.3
2022-12-19T04:24:25.374Z,42
2022-12-19T04:25:41.653Z,44.9
2022-12-19T04:26:57.947Z,44.9
2022-12-19T04:28:14.260Z,42.3
2022-12-19T04:29:30.548Z,42
2022-12-19T04:30:46.844Z,42.5
2022-12-19T04:32:03.128Z,45.6
2022-12-19T04:33:19.429Z,42.7
2022-12-19T04:34:35.718Z,42
2022-12-19T04:35:52.011Z,42.5
2022-12-19T04:37:07.317Z,71.2
2022-12-19T04:38:23.625Z,43.9
2022-12-19T04:39:39.905Z,44.3
2022-12-19T04:40:56.209Z,43.9
2022-12-19T04:42:12.499Z,43
2022-12-19T04:43:28.787Z,42.8
2022-12-19T04:44:45.091Z,44.6
2022-12-19T04:46:00.394Z,43.3
2022-12-19T04:47:16.689Z,43.3
2022-12-19T04:48:32.983Z,43.1
2022-12-19T04:49:49.284Z,51.7
2022-12-19T04:51:05.577Z,42.2
2022-12-19T04:52:21.858Z,43.1
2022-12-19T04:53:38.151Z,45.6
2022-12-19T04:54:54.451Z,42.5
2022-12-19T04:56:10.754Z,43
2022-12-19T04:57:27.047Z,47.5
2022-12-19T04:58:43.328Z,42.5
2022-12-19T04:59:59.625Z,43.5
2022-12-19T05:01:15.928Z,43
2022-12-19T05:02:31.227Z,44.4
2022-12-19T05:03:47.526Z,46
2022-12-19T05:05:03.810Z,44.9
2022-12-19T05:06:20.108Z,56.5
2022-12-19T05:07:36.404Z,48.6
2022-12-19T05:08:52.691Z,45.9
2022-12-19T05:10:08.986Z,44.7
2022-12-19T05:11:25.280Z,45.4
2022-12-19T05:12:41.582Z,44.9
2022-12-19T05:13:57.883Z,44.4
2022-12-19T05:15:14.159Z,45.7
2022-12-19T05:16:30.455Z,44.6
2022-12-19T05:17:46.747Z,45.7
2022-12-19T05:19:02.073Z,45.1
2022-12-19T05:20:18.351Z,44.9
2022-12-19T05:21:34.661Z,47.3
2022-12-19T05:22:50.955Z,45.6
2022-12-19T05:24:07.233Z,45.7
2022-12-19T05:25:23.535Z,44.7
2022-12-19T05:26:39.820Z,46.7
2022-12-19T05:27:56.117Z,49.4
2022-12-19T05:29:12.420Z,47.3
2022-12-19T05:30:28.701Z,45.1
2022-12-19T05:31:44.996Z,46.8
2022-12-19T05:33:01.288Z,48.3
2022-12-19T05:34:17.591Z,45.7
2022-12-19T05:35:32.891Z,46.5
2022-12-19T05:36:49.193Z,45.4
2022-12-19T05:38:05.476Z,47.2
2022-12-19T05:39:21.787Z,46
2022-12-19T05:40:38.077Z,47.3
2022-12-19T05:41:54.371Z,47.6
2022-12-19T05:43:10.663Z,46.7
2022-12-19T05:44:26.963Z,44.4
2022-12-19T05:45:43.251Z,44.7
2022-12-19T05:46:59.541Z,44.3
2022-12-19T05:48:15.830Z,44.3
2022-12-19T05:49:32.137Z,48.5
2022-12-19T05:50:48.428Z,50.2
2022-12-19T05:52:03.730Z,47.3
2022-12-19T05:53:20.024Z,58.9
2022-12-19T05:54:36.323Z,48.1
2022-12-19T05:55:52.611Z,47.5
2022-12-19T05:57:08.908Z,50.7
2022-12-19T05:58:25.201Z,46
2022-12-19T05:59:41.505Z,45.6
2022-12-19T06:00:57.787Z,49.3
2022-12-19T06:02:14.082Z,50.5
2022-12-19T06:03:30.379Z,47.5
2022-12-19T06:04:46.660Z,49.7
2022-12-19T06:06:02.957Z,46.8
2022-12-19T06:07:19.261Z,48.6
2022-12-19T06:08:34.561Z,45.9
2022-12-19T06:09:50.856Z,48.8
2022-12-19T06:11:07.145Z,55.5
2022-12-19T06:12:23.440Z,45.1
2022-12-19T06:13:39.738Z,47.3
2022-12-19T06:14:56.030Z,46.4
2022-12-19T06:16:12.324Z,45.6
2022-12-19T06:17:28.624Z,46.2
2022-12-19T06:18:44.910Z,50.1
2022-12-19T06:20:01.201Z,48.9
2022-12-19T06:21:17.501Z,47.5
2022-12-19T06:22:33.799Z,52.3
2022-12-19T06:23:50.084Z,50.1
2022-12-19T06:25:05.400Z,45.4
2022-12-19T06:26:21.703Z,48.3
2022-12-19T06:27:37.992Z,63.3
2022-12-19T06:28:54.270Z,51.5
2022-12-19T06:30:10.567Z,47.2
2022-12-19T06:31:26.868Z,46.5
2022-12-19T06:32:43.152Z,48.5
2022-12-19T06:33:59.451Z,47.8
2022-12-19T06:35:15.742Z,47.8
2022-12-19T06:36:32.049Z,53
2022-12-19T06:37:48.291Z,46.5
2022-12-19T06:39:04.524Z,47.2
2022-12-19T06:40:20.766Z,47.6
2022-12-19T06:41:36.029Z,61.3
2022-12-19T06:42:52.277Z,48.5
2022-12-19T06:44:08.511Z,48.5
2022-12-19T06:45:24.755Z,45.4
2022-12-19T06:46:41.001Z,46.5
2022-12-19T06:47:57.232Z,46
2022-12-19T06:49:13.475Z,45.2
2022-12-19T06:50:29.724Z,46
2022-12-19T06:51:45.946Z,43.9
2022-12-19T06:53:02.186Z,46
2022-12-19T06:54:18.434Z,44.3
2022-12-19T06:55:34.682Z,47.8
2022-12-19T06:56:50.920Z,43.3
2022-12-19T06:58:06.175Z,46
2022-12-19T06:59:22.418Z,43.9
2022-12-19T07:00:38.650Z,49.7
2022-12-19T07:01:54.888Z,51
2022-12-19T07:03:11.129Z,45.2
2022-12-19T07:04:27.367Z,43.9
2022-12-19T07:05:43.600Z,46.8
2022-12-19T07:06:59.841Z,46.2
2022-12-19T07:08:16.098Z,45.2
2022-12-19T07:09:32.329Z,46
2022-12-19T07:10:48.567Z,45.2
2022-12-19T07:12:04.805Z,44.3
2022-12-19T07:13:21.039Z,48.1
2022-12-19T07:14:36.312Z,46.8
2022-12-19T07:15:52.541Z,46
2022-12-19T07:17:08.783Z,50.1
2022-12-19T07:18:25.015Z,43.8
2022-12-19T07:19:41.254Z,45.2
2022-12-19T07:20:57.507Z,53.6
2022-12-19T07:22:13.733Z,49.7
2022-12-19T07:23:29.983Z,47
2022-12-19T07:24:46.217Z,53
2022-12-19T07:26:02.465Z,45.9
2022-12-19T07:27:18.699Z,48.3
2022-12-19T07:28:34.944Z,44.9
2022-12-19T07:29:51.185Z,46.8
2022-12-19T07:31:06.425Z,46.8
2022-12-19T07:32:22.672Z,46.7
2022-12-19T07:33:38.912Z,45.4
2022-12-19T07:34:55.155Z,47.3
2022-12-19T07:36:11.402Z,49.7
2022-12-19T07:37:27.639Z,45.1
2022-12-19T07:38:43.873Z,46.8
2022-12-19T07:40:00.119Z,48.1
2022-12-19T07:41:16.342Z,48.9
2022-12-19T07:42:32.599Z,47
2022-12-19T07:43:48.822Z,46.8
2022-12-19T07:45:05.070Z,48.3
2022-12-19T07:46:21.321Z,46.4
2022-12-19T07:47:36.566Z,48.1
2022-12-19T07:48:52.801Z,47
2022-12-19T07:50:09.055Z,49.3
2022-12-19T07:51:25.292Z,46.8
2022-12-19T07:52:41.515Z,51.7
2022-12-19T07:53:57.774Z,44.1
2022-12-19T07:55:13.996Z,48.9
2022-12-19T07:57:46.494Z,50.4
2022-12-19T07:59:02.731Z,48
2022-12-19T08:00:18.962Z,48.9
2022-12-19T08:01:35.194Z,46.2
2022-12-19T08:02:51.453Z,48.1
2022-12-19T08:04:06.693Z,59.1
2022-12-19T08:05:22.927Z,45.2
2022-12-19T08:06:39.161Z,46.7
2022-12-19T08:07:55.400Z,46.8
2022-12-19T08:09:11.634Z,46.4
2022-12-19T08:10:27.880Z,45.9
2022-12-19T08:11:44.113Z,50.2
2022-12-19T08:13:00.367Z,47.2
2022-12-19T08:14:16.606Z,48.8
2022-12-19T08:15:32.840Z,44.6
2022-12-19T08:16:49.078Z,48.3
2022-12-19T08:18:05.313Z,48.8
2022-12-19T08:19:21.560Z,46.4
2022-12-19T08:20:36.822Z,45.7
2022-12-19T08:21:53.049Z,45.7
2022-12-19T08:23:09.288Z,50.2
2022-12-19T08:24:25.532Z,46
2022-12-19T08:25:41.774Z,47.6
2022-12-19T08:26:58.017Z,47.6
2022-12-19T08:28:14.254Z,44.6
2022-12-19T08:29:30.501Z,46.8
2022-12-19T08:30:46.732Z,47.6
2022-12-19T08:32:02.965Z,47
2022-12-19T08:33:19.210Z,45.7
2022-12-19T08:34:35.453Z,47.5
2022-12-19T08:35:51.693Z,47.6
2022-12-19T08:37:06.951Z,48.6
2022-12-19T08:38:23.189Z,46.4
2022-12-19T08:39:39.420Z,47.3
2022-12-19T08:40:55.666Z,44.1
2022-12-19T08:42:11.899Z,48.3
2022-12-19T08:43:28.142Z,43.9
2022-12-19T08:44:44.379Z,58
2022-12-19T08:46:00.620Z,48.5
2022-12-19T08:47:16.852Z,47.8
2022-12-19T08:48:33.095Z,47.3
2022-12-19T08:49:49.349Z,47.2
2022-12-19T08:51:05.575Z,47.5
2022-12-19T08:52:21.818Z,44.4
2022-12-19T08:53:37.077Z,43.8
2022-12-19T08:54:53.313Z,54.9
2022-12-19T08:56:09.544Z,47.6
2022-12-19T08:57:25.793Z,44.9
2022-12-19T08:58:42.027Z,52.2
2022-12-19T08:59:58.272Z,45.1
2022-12-19T09:01:13.529Z,45.7
2022-12-19T09:02:29.774Z,54.4
2022-12-19T09:03:46.024Z,49.4
2022-12-19T09:05:02.263Z,45.7
2022-12-19T09:06:18.489Z,46
2022-12-19T09:07:34.740Z,57.8
2022-12-19T09:08:50.973Z,46.7
2022-12-19T09:10:07.207Z,45.1
2022-12-19T09:11:23.453Z,48.1
2022-12-19T09:12:39.688Z,58
2022-12-19T09:13:55.925Z,46.5
2022-12-19T09:15:12.176Z,48.5
2022-12-19T09:16:28.409Z,45.6
2022-12-19T09:17:43.661Z,48.8
2022-12-19T09:18:59.901Z,47.5
2022-12-19T09:20:16.136Z,47.3
2022-12-19T09:21:32.383Z,53.4
2022-12-19T09:22:48.622Z,52.5
2022-12-19T09:24:04.866Z,49.7
2022-12-19T09:25:21.104Z,49.3
2022-12-19T09:26:37.338Z,45.7
2022-12-19T09:27:53.575Z,44.4
2022-12-19T09:29:09.822Z,46.4
2022-12-19T09:30:26.052Z,51.5
2022-12-19T09:31:42.297Z,46.4
2022-12-19T09:32:58.527Z,46.5
2022-12-19T09:34:13.789Z,46
2022-12-19T09:35:30.037Z,48.1
2022-12-19T09:36:46.272Z,53.9
2022-12-19T09:38:02.509Z,64.9
2022-12-19T09:39:18.745Z,45.1
2022-12-19T09:40:34.981Z,46.8
2022-12-19T09:41:51.225Z,45.6
2022-12-19T09:43:07.473Z,48.3
2022-12-19T09:44:23.707Z,47.8
2022-12-19T09:45:39.949Z,45.2
2022-12-19T09:46:56.179Z,51.2
2022-12-19T09:48:12.429Z,48.8
2022-12-19T09:49:28.663Z,55.2
2022-12-19T09:50:43.918Z,46.7
2022-12-19T09:52:00.156Z,48.5
2022-12-19T09:53:16.397Z,46.8
2022-12-19T09:54:32.642Z,50.4
2022-12-19T09:55:48.877Z,47.8
2022-12-19T09:57:05.108Z,51.2
2022-12-19T09:58:21.347Z,46.8
2022-12-19T09:59:37.588Z,46.5
2022-12-19T10:00:53.822Z,46.8
2022-12-19T10:02:10.072Z,51.5
2022-12-19T10:03:26.316Z,49.4
2022-12-19T10:04:42.545Z,58.3
2022-12-19T10:05:58.791Z,50.4
2022-12-19T10:07:14.042Z,49.9
2022-12-19T10:08:30.288Z,49.3
2022-12-19T10:09:46.522Z,53.4
2022-12-19T10:11:02.757Z,51.4
2022-12-19T10:12:19.001Z,51.2
2022-12-19T10:13:35.241Z,54.3
2022-12-19T10:14:51.481Z,53.1
2022-12-19T10:16:07.718Z,62.6
2022-12-19T10:17:23.949Z,53
2022-12-19T10:18:40.202Z,53
2022-12-19T10:19:56.431Z,52.2
2022-12-19T10:21:12.686Z,50.7
2022-12-19T10:22:28.910Z,51.7
2022-12-19T10:23:44.171Z,48.5
2022-12-19T10:25:00.409Z,62.1
2022-12-19T10:26:16.646Z,47.3
2022-12-19T10:27:32.892Z,51.8
2022-12-19T10:28:49.124Z,50.7
2022-12-19T10:30:05.376Z,46.2
2022-12-19T10:31:21.618Z,50.5
2022-12-19T10:32:37.858Z,62
2022-12-19T10:33:54.090Z,54.6
2022-12-19T10:35:10.328Z,48.5
2022-12-19T10:36:26.565Z,51.4
2022-12-19T10:37:42.811Z,48.9
2022-12-19T10:38:59.044Z,51
2022-12-19T10:40:14.289Z,54.6
2022-12-19T10:41:30.547Z,55.5
2022-12-19T10:42:46.776Z,54.4
2022-12-19T10:44:03.019Z,52.3
2022-12-19T10:45:19.255Z,56
2022-12-19T10:46:35.488Z,63.6
2022-12-19T10:47:51.737Z,53.4
2022-12-19T10:49:07.973Z,51
2022-12-19T10:50:24.208Z,50.2
2022-12-19T10:51:40.452Z,74.1
2022-12-19T10:52:56.708Z,60.1
2022-12-19T10:54:12.928Z,50.2
2022-12-19T10:55:29.162Z,50.5
2022-12-19T10:56:44.427Z,53.8
2022-12-19T10:58:00.670Z,48.1
2022-12-19T10:59:16.896Z,49.3
2022-12-19T11:00:33.138Z,49.3
2022-12-19T11:01:49.389Z,55.2
2022-12-19T11:03:05.618Z,54.1
2022-12-19T11:04:21.858Z,51.7
2022-12-19T11:05:38.094Z,57.5
2022-12-19T11:06:54.336Z,48.9
2022-12-19T11:08:10.585Z,51
2022-12-19T11:09:26.814Z,52.3
2022-12-19T11:10:43.054Z,56.2
2022-12-19T11:11:59.303Z,55.9
2022-12-19T11:13:14.555Z,65.5
2022-12-19T11:15:47.039Z,60.9
2022-12-19T11:17:03.281Z,50.9
2022-12-19T11:18:19.522Z,54.7
2022-12-19T11:19:35.751Z,50.7
2022-12-19T11:20:51.995Z,55.5
2022-12-19T11:22:08.233Z,57.5
2022-12-19T11:23:24.479Z,53.6
2022-12-19T11:24:40.700Z,54.1
2022-12-19T11:25:56.953Z,52.8
2022-12-19T11:27:13.187Z,53.6
2022-12-19T11:28:29.418Z,54.9
2022-12-19T11:29:44.686Z,61
2022-12-19T11:31:00.926Z,53.1
2022-12-19T11:33:33.393Z,51.5
2022-12-19T11:34:49.636Z,51.4
2022-12-19T11:36:05.887Z,53
2022-12-19T11:37:22.107Z,57
2022-12-19T11:38:38.355Z,57.8
2022-12-19T11:39:54.589Z,53.9
2022-12-19T11:41:10.825Z,53
2022-12-19T11:42:27.068Z,53
2022-12-19T11:43:43.314Z,51.2
2022-12-19T11:44:59.548Z,53.1
2022-12-19T11:46:14.802Z,54.1
2022-12-19T11:47:31.039Z,54.1
2022-12-19T11:48:47.282Z,53.9
2022-12-19T11:50:03.537Z,54.7
2022-12-19T11:51:19.760Z,53.9
2022-12-19T11:52:36.015Z,59.6
2022-12-19T11:53:52.240Z,57
2022-12-19T11:55:08.493Z,54.4
2022-12-19T11:56:24.716Z,52.8
2022-12-19T11:57:40.954Z,56.2
2022-12-19T11:58:57.197Z,51.8
2022-12-19T12:00:13.439Z,53.1
2022-12-19T12:01:29.672Z,58.9
2022-12-19T12:02:44.942Z,56.8
2022-12-19T12:04:01.169Z,54.6
2022-12-19T12:05:17.406Z,55.7
2022-12-19T12:06:33.664Z,59.2
2022-12-19T12:07:49.902Z,52.8
2022-12-19T12:09:06.132Z,52.8
2022-12-19T12:10:22.381Z,52.2
2022-12-19T12:11:38.602Z,57.3
2022-12-19T12:12:54.843Z,54.7
2022-12-19T12:14:11.098Z,54.3
2022-12-19T12:15:27.326Z,55.7
2022-12-19T12:16:43.561Z,56.5
2022-12-19T12:17:59.799Z,53.6
2022-12-19T12:19:15.060Z,58.9
2022-12-19T12:20:31.305Z,54.4
2022-12-19T12:21:47.534Z,62.5
2022-12-19T12:23:03.790Z,54.6
2022-12-19T12:24:20.027Z,57.3
2022-12-19T12:25:36.249Z,54.1
2022-12-19T12:26:52.497Z,62.8
2022-12-19T12:28:08.738Z,67.9
2022-12-19T12:29:24.977Z,55.1
2022-12-19T12:30:41.215Z,56.5
2022-12-19T12:31:57.449Z,64.9
2022-12-19T12:33:13.696Z,55.9
2022-12-19T12:34:29.937Z,56.5
2022-12-19T12:35:45.190Z,54.6
2022-12-19T12:37:01.425Z,54.4
2022-12-19T12:38:17.659Z,59.1
2022-12-19T12:39:33.907Z,57
2022-12-19T12:40:50.136Z,56.2
2022-12-19T12:42:06.395Z,55.9
2022-12-19T12:43:22.621Z,57.5
2022-12-19T12:44:38.857Z,58.6
2022-12-19T12:45:55.097Z,56.2
2022-12-19T12:47:11.341Z,55.5
2022-12-19T12:48:27.583Z,54.9
2022-12-19T12:49:43.829Z,56.7
2022-12-19T12:51:00.051Z,57.8
2022-12-19T12:52:15.319Z,56.7
2022-12-19T12:53:31.551Z,56
2022-12-19T12:54:47.785Z,54.3
2022-12-19T12:56:04.031Z,59.4
2022-12-19T12:57:20.266Z,54.7
2022-12-19T12:58:36.519Z,55.4
2022-12-19T12:59:52.753Z,53.1
2022-12-19T13:01:08.984Z,51.5
2022-12-19T13:02:25.237Z,51.8
2022-12-19T13:03:41.474Z,55.9
2022-12-19T13:04:57.715Z,56
2022-12-19T13:06:13.943Z,51.5
2022-12-19T13:07:30.181Z,55.9
2022-12-19T13:08:45.453Z,66
2022-12-19T13:10:01.691Z,56.2
2022-12-19T13:11:17.926Z,57
2022-12-19T13:12:34.161Z,52.3
2022-12-19T13:13:50.410Z,56
2022-12-19T13:15:06.648Z,53.9
2022-12-19T13:16:21.904Z,53.9
2022-12-19T13:17:38.129Z,63.8
2022-12-19T13:18:54.382Z,61.5
2022-12-19T13:20:10.616Z,68.4
2022-12-19T13:21:26.857Z,55.2
2022-12-19T13:22:43.090Z,55.5
2022-12-19T13:23:59.330Z,54.1
2022-12-19T13:25:15.579Z,52.5
2022-12-19T13:26:31.814Z,53.4
2022-12-19T13:27:48.049Z,58
2022-12-19T13:29:04.291Z,54.1
2022-12-19T13:30:20.539Z,56.8
2022-12-19T13:31:36.766Z,54.3
2022-12-19T13:32:52.027Z,66.5
2022-12-19T13:34:08.261Z,55.9
2022-12-19T13:35:24.510Z,54.7
2022-12-19T13:36:40.752Z,59.7
2022-12-19T13:37:56.981Z,52.3
2022-12-19T13:39:13.224Z,59.1
2022-12-19T13:40:29.452Z,54.6
2022-12-19T13:41:45.705Z,54.6
2022-12-19T13:43:01.947Z,57.3
2022-12-19T13:44:18.178Z,55.7
2022-12-19T13:45:34.424Z,57
2022-12-19T13:46:50.665Z,55.5
2022-12-19T13:48:06.891Z,57.8
2022-12-19T13:49:22.150Z,54.4
2022-12-19T13:50:38.384Z,52.8
2022-12-19T13:51:54.625Z,54.3
2022-12-19T13:53:10.860Z,56.7
2022-12-19T13:54:27.099Z,55.2
2022-12-19T13:55:43.344Z,54.9
2022-12-19T13:56:59.589Z,56.7
2022-12-19T13:58:15.828Z,55.5
2022-12-19T13:59:32.055Z,54.7
2022-12-19T14:00:48.307Z,55.2
2022-12-19T14:02:04.534Z,56.3
2022-12-19T14:03:20.787Z,57.5
2022-12-19T14:04:37.025Z,54.7
2022-12-19T14:05:52.268Z,71.5
2022-12-19T14:07:08.517Z,54.3
2022-12-19T14:08:24.754Z,54.9
2022-12-19T14:09:41.004Z,54.7
2022-12-19T14:10:57.228Z,55.5
2022-12-19T14:12:13.477Z,53.8
2022-12-19T14:13:29.718Z,54.7
2022-12-19T14:14:45.956Z,59.1
2022-12-19T14:16:02.181Z,55.2
2022-12-19T14:17:18.424Z,67.9
2022-12-19T14:18:34.669Z,58.4
2022-12-19T14:19:50.910Z,53.9
2022-12-19T14:21:07.140Z,54.6
2022-12-19T14:22:22.395Z,55.2
2022-12-19T14:23:38.651Z,58
2022-12-19T14:24:54.872Z,56.5
2022-12-19T14:26:11.127Z,56.2
2022-12-19T14:27:27.351Z,55.2
2022-12-19T14:28:43.589Z,55.5
2022-12-19T14:29:59.846Z,57.3
2022-12-19T14:31:16.080Z,55.9
2022-12-19T14:32:32.318Z,56.8
2022-12-19T14:33:48.561Z,53.6
2022-12-19T14:35:04.794Z,56.2
2022-12-19T14:36:21.036Z,54.7
2022-12-19T14:37:37.269Z,53
2022-12-19T14:38:52.531Z,53.8
2022-12-19T14:40:08.774Z,55.5
2022-12-19T14:41:24.997Z,55.5
2022-12-19T14:42:41.245Z,55.2
2022-12-19T14:43:57.494Z,55.4
2022-12-19T14:45:13.732Z,53.6
2022-12-19T14:46:29.972Z,55.1
2022-12-19T14:47:46.208Z,58
2022-12-19T14:49:02.433Z,53.6
2022-12-19T14:50:18.681Z,54.3
2022-12-19T14:51:34.925Z,57.3
2022-12-19T14:52:51.158Z,55.5
2022-12-19T14:54:07.389Z,57.5
2022-12-19T14:55:22.643Z,54.6
2022-12-19T14:56:38.899Z,53.6
2022-12-19T14:57:55.122Z,55.9
2022-12-19T14:59:11.381Z,56.8
2022-12-19T15:00:27.613Z,55.4
2022-12-19T15:01:43.842Z,53.4
2022-12-19T15:03:00.090Z,54.4
2022-12-19T15:04:16.326Z,56.5
2022-12-19T15:05:32.574Z,56.8
2022-12-19T15:06:48.809Z,56.7
2022-12-19T15:08:05.054Z,53.6
2022-12-19T15:09:21.281Z,55.5
2022-12-19T15:10:37.523Z,58.6
2022-12-19T15:11:52.771Z,60.1
2022-12-19T15:13:09.022Z,55.9
2022-12-19T15:14:25.261Z,52.2
2022-12-19T15:15:41.495Z,52.5
2022-12-19T15:16:57.740Z,52.5
2022-12-19T15:18:13.968Z,54.4
2022-12-19T15:19:30.207Z,51.2
2022-12-19T15:20:46.443Z,59.4
2022-12-19T15:22:02.684Z,51.7
2022-12-19T15:23:18.923Z,51.2
2022-12-19T15:24:35.227Z,51.8
2022-12-19T15:25:51.525Z,52.8
2022-12-19T15:27:07.805Z,55.7
2022-12-19T15:28:23.121Z,52.6
2022-12-19T15:29:39.423Z,53.6
2022-12-19T15:30:55.702Z,50.4
2022-12-19T15:32:12.006Z,50.4
2022-12-19T15:33:28.300Z,52.8
2022-12-19T15:34:44.592Z,57.2
2022-12-19T15:36:00.876Z,51.5
2022-12-19T15:37:17.182Z,52.5
2022-12-19T15:38:33.462Z,50.2
2022-12-19T15:39:49.756Z,50.2
2022-12-19T15:41:06.044Z,51.2
2022-12-19T15:42:22.352Z,51.7
2022-12-19T15:43:38.637Z,52
2022-12-19T15:44:53.962Z,55.9
2022-12-19T15:46:10.234Z,56.8
2022-12-19T15:47:26.544Z,54.3
2022-12-19T15:48:42.838Z,54.4
2022-12-19T15:49:59.111Z,53.4
2022-12-19T15:51:15.414Z,50.7
2022-12-19T15:52:31.702Z,51.5
2022-12-19T15:53:47.994Z,54.9
2022-12-19T15:55:04.304Z,52
2022-12-19T15:56:20.594Z,55.4
2022-12-19T15:57:36.873Z,59.6
2022-12-19T15:58:53.172Z,50.1
2022-12-19T16:00:09.466Z,50.5
2022-12-19T16:01:25.889Z,49.9
2022-12-19T16:02:42.167Z,48.9
2022-12-19T16:03:58.470Z,56.7
2022-12-19T16:05:14.767Z,51.8
2022-12-19T16:06:31.044Z,51.4
2022-12-19T16:07:47.348Z,55.1
2022-12-19T16:09:03.632Z,51.8
2022-12-19T16:10:19.937Z,50.5
2022-12-19T16:11:36.222Z,53.9
2022-12-19T16:12:52.518Z,49.7
2022-12-19T16:14:08.807Z,53.9
2022-12-19T16:15:25.103Z,49.3
2022-12-19T16:16:41.393Z,50.9
2022-12-19T16:17:56.718Z,51
2022-12-19T16:19:12.997Z,53.6
2022-12-19T16:20:29.286Z,53.8
2022-12-19T16:21:45.582Z,53.9
2022-12-19T16:23:01.879Z,53.6
2022-12-19T16:24:18.169Z,53.1
2022-12-19T16:25:34.462Z,55.9
2022-12-19T16:26:50.000Z,52.5
2022-12-19T16:28:07.047Z,51.8
2022-12-19T16:29:23.342Z,52.5
2022-12-19T16:30:39.647Z,50.7
2022-12-19T16:31:55.925Z,50.2
2022-12-19T16:33:12.215Z,53.6
2022-12-19T16:34:27.533Z,51.5
2022-12-19T16:35:43.837Z,51.2
2022-12-19T16:37:00.121Z,61.3
2022-12-19T16:38:16.424Z,53.1
2022-12-19T16:39:32.000Z,66.2
2022-12-19T16:40:48.997Z,50.2
2022-12-19T16:42:05.298Z,51.2
2022-12-19T16:43:21.577Z,51.8
2022-12-19T16:44:37.876Z,50.2
2022-12-19T16:45:54.173Z,51.2
2022-12-19T16:47:10.469Z,52.3
2022-12-19T16:48:26.751Z,49.7
2022-12-19T16:49:43.051Z,54.3
2022-12-19T16:50:58.368Z,55.7
2022-12-19T16:52:14.658Z,50.5
2022-12-19T16:53:30.955Z,52.3
2022-12-19T16:54:47.250Z,50.5
2022-12-19T16:56:03.536Z,57.8
2022-12-19T16:57:19.819Z,49.7
2022-12-19T16:58:36.118Z,50.4
2022-12-19T16:59:52.415Z,56.3
2022-12-19T17:01:08.715Z,54.4
2022-12-19T17:02:25.011Z,52.2
2022-12-19T17:03:41.290Z,49.7
2022-12-19T17:04:57.592Z,50.2